Terminal Aerodrome Forecast
Issued by NWS Louisville, KY

Home | Current Version | Previous Version | Text Only | Print | Product List | Glossary On
Versions: 1 2 3 4 5 6 7 8 9 10 11 12 13 14 15 16 17 18 19
000
FTUS43 KLMK 291902 AAA
TAFBWG
TAF AMD
KBWG 291902Z 2919/3018 VRB04KT P6SM VCSH FEW020 OVC035
      TEMPO 2922/3001 5SM -SHRA BKN020
     FM300100 32003KT P6SM SCT015 BKN250
      TEMPO 3006/3010 3SM BR BKN015
     FM301000 18003KT 1 1/2SM BR OVC007=

USA.gov is the U.S. government's official web portal to all federal, state and local government web resources and services.